Terminal Aerodrome Forecast
Issued by NWS Tulsa, OK

Home | Current Version | Previous Version | Text Only | Print | Product List | Glossary On
Versions: 1 2 3 4 5 6 7 8 9 10 11 12 13 14 15 16 17 18
993
FTUS44 KTSA 270520
TAFTUL
TAF
KTUL 270520Z 2706/2806 35012KT P6SM VCTS SCT050CB BKN100
     FM270800 35008KT P6SM VCSH BKN015
     FM271000 33009KT P6SM BKN015
     FM271900 34010KT P6SM BKN025 BKN035
     FM272200 01006KT P6SM BKN035=

USA.gov is the U.S. government's official web portal to all federal, state and local government web resources and services.